createdAt,value
2022-12-17T00:02:42.492Z,30.67
2022-12-17T00:05:28.079Z,30.13
2022-12-17T00:08:17.602Z,29.90
2022-12-17T00:11:03.287Z,27.73
2022-12-17T00:13:49.061Z,27.07
2022-12-17T00:16:36.241Z,26.47
2022-12-17T00:19:21.985Z,26.80
2022-12-17T00:22:07.379Z,27.93
2022-12-17T00:24:52.686Z,27.07
2022-12-17T00:27:41.590Z,27.73
2022-12-17T00:30:28.008Z,28.40
2022-12-17T00:33:15.040Z,24.93
2022-12-17T00:36:01.673Z,22.33
2022-12-17T00:38:47.056Z,22.63
2022-12-17T00:41:32.191Z,23.23
2022-12-17T00:44:17.506Z,23.10
2022-12-17T00:47:02.900Z,22.10
2022-12-17T00:49:49.849Z,26.60
2022-12-17T00:52:35.164Z,25.83
2022-12-17T00:55:20.406Z,28.03
2022-12-17T00:58:10.521Z,27.30
2022-12-17T01:00:56.022Z,26.10
2022-12-17T01:03:41.934Z,27.47
2022-12-17T01:06:28.715Z,28.23
2022-12-17T01:09:14.686Z,27.07
2022-12-17T01:12:00.520Z,28.30
2022-12-17T01:14:46.506Z,28.47
2022-12-17T01:17:32.429Z,26.23
2022-12-17T01:20:17.769Z,27.07
2022-12-17T01:23:05.316Z,25.50
2022-12-17T01:25:50.645Z,28.60
2022-12-17T01:28:41.532Z,28.60
2022-12-17T01:31:31.390Z,26.23
2022-12-17T01:34:20.218Z,26.17
2022-12-17T01:37:06.499Z,29.93
2022-12-17T01:40:01.977Z,28.87
2022-12-17T01:42:56.616Z,27.73
2022-12-17T01:45:42.231Z,28.50
2022-12-17T01:48:33.554Z,29.37
2022-12-17T01:51:19.228Z,28.50
2022-12-17T01:54:08.563Z,27.30
2022-12-17T01:56:59.617Z,28.37
2022-12-17T01:59:55.000Z,27.40
2022-12-17T02:02:40.461Z,28.40
2022-12-17T02:05:26.572Z,30.30
2022-12-17T02:08:21.601Z,25.67
2022-12-17T02:11:16.198Z,27.70
2022-12-17T02:14:25.210Z,25.70
2022-12-17T02:17:13.977Z,24.93
2022-12-17T02:20:09.037Z,25.87
2022-12-17T02:23:04.515Z,25.93
2022-12-17T02:25:58.389Z,28.00
2022-12-17T02:28:46.901Z,27.20
2022-12-17T02:31:35.219Z,26.87
2022-12-17T02:34:20.900Z,27.93
2022-12-17T02:37:08.402Z,27.13
2022-12-17T02:39:56.410Z,26.73
2022-12-17T02:42:44.851Z,27.40
2022-12-17T02:45:42.212Z,26.53
2022-12-17T02:48:30.652Z,27.40
2022-12-17T02:51:17.125Z,27.50
2022-12-17T02:54:04.483Z,26.83
2022-12-17T02:56:59.107Z,26.37
2022-12-17T02:59:44.307Z,25.63
2022-12-17T03:02:35.826Z,27.23
2022-12-17T03:05:43.948Z,26.57
2022-12-17T03:08:27.458Z,24.97
2022-12-17T03:11:13.043Z,25.57
2022-12-17T03:13:58.625Z,26.67
2022-12-17T03:16:44.062Z,27.10
2022-12-17T03:19:31.449Z,26.57
2022-12-17T03:22:16.866Z,24.60
2022-12-17T03:25:02.366Z,26.17
2022-12-17T03:27:47.747Z,26.60
2022-12-17T03:30:36.390Z,24.03
2022-12-17T03:33:23.094Z,25.30
2022-12-17T03:36:12.169Z,25.23
2022-12-17T03:38:58.105Z,23.07
2022-12-17T03:41:43.547Z,24.17
2022-12-17T03:44:29.422Z,25.10
2022-12-17T03:47:15.003Z,22.37
2022-12-17T03:50:00.416Z,24.23
2022-12-17T03:52:47.660Z,23.53
2022-12-17T03:55:33.607Z,22.07
2022-12-17T03:58:19.112Z,22.67
2022-12-17T04:01:05.042Z,23.97
2022-12-17T04:03:50.458Z,22.80
2022-12-17T04:06:35.846Z,23.57
2022-12-17T04:09:31.312Z,23.83
2022-12-17T04:12:17.272Z,22.10
2022-12-17T04:15:02.545Z,23.63
2022-12-17T04:17:44.629Z,20.33
2022-12-17T04:20:30.510Z,22.57
2022-12-17T04:23:15.953Z,22.97
2022-12-17T04:26:03.028Z,23.93
2022-12-17T04:28:48.768Z,22.67
2022-12-17T04:31:34.758Z,20.67
2022-12-17T04:34:20.108Z,20.67
2022-12-17T04:37:05.387Z,21.33
2022-12-17T04:39:51.315Z,21.50
2022-12-17T04:42:39.285Z,22.23
2022-12-17T04:45:25.700Z,21.10
2022-12-17T04:48:19.639Z,22.33
2022-12-17T04:51:05.270Z,21.47
2022-12-17T04:53:50.700Z,21.93
2022-12-17T04:56:36.053Z,20.23
2022-12-17T04:59:20.033Z,22.50
2022-12-17T05:02:05.450Z,23.03
2022-12-17T05:04:50.849Z,22.07
2022-12-17T05:07:36.534Z,22.87
2022-12-17T05:10:22.523Z,21.30
2022-12-17T05:13:15.115Z,22.00
2022-12-17T05:16:02.123Z,21.67
2022-12-17T05:18:47.212Z,23.10
2022-12-17T05:21:33.657Z,21.87
2022-12-17T05:24:19.550Z,22.20
2022-12-17T05:27:04.901Z,23.27
2022-12-17T05:29:50.797Z,23.87
2022-12-17T05:32:37.652Z,21.97
2022-12-17T05:35:23.471Z,21.07
2022-12-17T05:38:08.968Z,20.40
2022-12-17T05:40:54.653Z,19.77
2022-12-17T05:43:40.223Z,18.03
2022-12-17T05:46:26.114Z,17.90
2022-12-17T05:49:13.213Z,16.83
2022-12-17T05:51:59.012Z,16.90
2022-12-17T05:54:44.384Z,14.93
2022-12-17T05:57:29.865Z,14.47
2022-12-17T06:00:15.734Z,13.70
2022-12-17T06:03:01.311Z,14.03
2022-12-17T06:05:48.419Z,12.67
2022-12-17T06:08:34.286Z,13.37
2022-12-17T06:11:20.206Z,14.40
2022-12-17T06:14:20.733Z,14.53
2022-12-17T06:17:06.650Z,13.30
2022-12-17T06:19:52.491Z,13.27
2022-12-17T06:22:39.374Z,13.17
2022-12-17T06:25:25.339Z,12.67
2022-12-17T06:28:16.807Z,13.63
2022-12-17T06:31:02.204Z,15.07
2022-12-17T06:33:47.952Z,14.83
2022-12-17T06:36:33.666Z,13.07
2022-12-17T06:39:20.649Z,14.63
2022-12-17T06:42:06.018Z,13.73
2022-12-17T06:44:51.361Z,14.27
2022-12-17T06:47:37.203Z,13.43
2022-12-17T06:50:24.085Z,15.63
2022-12-17T06:53:17.460Z,16.57
2022-12-17T06:56:04.601Z,14.83
2022-12-17T06:58:50.089Z,13.97
2022-12-17T07:01:35.752Z,14.43
2022-12-17T07:04:22.271Z,14.23
2022-12-17T07:07:07.665Z,13.37
2022-12-17T07:09:53.681Z,14.17
2022-12-17T07:12:41.150Z,15.67
2022-12-17T07:15:27.529Z,13.57
2022-12-17T07:18:14.539Z,15.27
2022-12-17T07:21:00.289Z,13.90
2022-12-17T07:23:45.755Z,13.80
2022-12-17T07:26:27.748Z,12.63
2022-12-17T07:29:17.188Z,13.60
2022-12-17T07:32:02.681Z,13.40
2022-12-17T07:34:48.013Z,14.27
2022-12-17T07:37:34.134Z,13.47
2022-12-17T07:40:19.582Z,13.63
2022-12-17T07:43:05.247Z,14.97
2022-12-17T07:45:51.961Z,13.20
2022-12-17T07:48:37.273Z,14.03
2022-12-17T07:51:23.021Z,13.83
2022-12-17T07:54:08.380Z,14.07
2022-12-17T07:56:53.734Z,15.67
2022-12-17T07:59:39.111Z,15.30
2022-12-17T08:02:28.202Z,15.47
2022-12-17T08:05:13.705Z,15.30
2022-12-17T08:07:59.087Z,15.63
2022-12-17T08:10:44.560Z,18.80
2022-12-17T08:13:29.959Z,19.27
2022-12-17T08:16:15.377Z,20.13
2022-12-17T08:18:58.871Z,20.80
2022-12-17T08:21:44.163Z,20.13
2022-12-17T08:24:34.735Z,18.70
2022-12-17T08:27:20.349Z,19.63
2022-12-17T08:30:07.571Z,20.77
2022-12-17T08:32:53.345Z,21.63
2022-12-17T08:35:40.332Z,21.03
2022-12-17T08:38:25.860Z,21.53
2022-12-17T08:41:11.119Z,21.77
2022-12-17T08:43:57.094Z,19.67
2022-12-17T08:46:42.471Z,19.23
2022-12-17T08:49:27.889Z,20.17
2022-12-17T08:52:29.480Z,21.43
2022-12-17T08:55:14.945Z,20.97
2022-12-17T08:58:00.562Z,19.73
2022-12-17T09:00:46.322Z,19.47
2022-12-17T09:03:31.838Z,18.43
2022-12-17T09:06:17.543Z,18.63
2022-12-17T09:09:04.179Z,18.57
2022-12-17T09:11:49.662Z,20.67
2022-12-17T09:14:35.127Z,18.13
2022-12-17T09:17:20.464Z,16.77
2022-12-17T09:20:05.721Z,17.00
2022-12-17T09:22:47.663Z,16.60
2022-12-17T09:25:34.732Z,16.13
2022-12-17T09:28:20.699Z,19.40
2022-12-17T09:31:07.009Z,16.80
2022-12-17T09:33:52.995Z,15.77
2022-12-17T09:36:38.593Z,17.13
2022-12-17T09:39:24.430Z,16.60
2022-12-17T09:42:18.471Z,17.73
2022-12-17T09:45:09.772Z,16.07
2022-12-17T09:48:06.756Z,15.80
2022-12-17T09:50:52.750Z,17.80
2022-12-17T09:53:42.867Z,16.40
2022-12-17T09:56:31.337Z,15.70
2022-12-17T09:59:18.597Z,16.43
2022-12-17T10:02:04.549Z,17.53
2022-12-17T10:04:53.739Z,17.30
2022-12-17T10:07:42.591Z,16.60
2022-12-17T10:10:37.221Z,18.23
2022-12-17T10:13:29.673Z,16.17
2022-12-17T10:16:17.176Z,16.57
2022-12-17T10:19:03.599Z,17.40
2022-12-17T10:21:49.615Z,16.23
2022-12-17T10:24:35.196Z,17.87
2022-12-17T10:27:28.454Z,17.90
2022-12-17T10:30:22.677Z,17.60
2022-12-17T10:33:15.257Z,17.37
2022-12-17T10:36:01.150Z,18.43
2022-12-17T10:38:48.390Z,17.53
2022-12-17T10:41:42.588Z,17.70
2022-12-17T10:44:42.869Z,17.73
2022-12-17T10:47:33.258Z,15.57
2022-12-17T10:50:22.007Z,14.87
2022-12-17T10:53:07.954Z,14.17
2022-12-17T10:55:54.843Z,14.23
2022-12-17T10:58:43.707Z,14.23
2022-12-17T11:01:31.598Z,14.40
2022-12-17T11:04:17.921Z,13.67
2022-12-17T11:07:07.506Z,13.20
2022-12-17T11:10:08.679Z,16.00
2022-12-17T11:12:58.631Z,12.47
2022-12-17T11:15:50.950Z,13.47
2022-12-17T11:18:40.967Z,13.90
2022-12-17T11:21:30.809Z,14.23
2022-12-17T11:24:22.476Z,13.17
2022-12-17T11:27:12.487Z,13.70
2022-12-17T11:30:01.288Z,14.23
2022-12-17T11:33:09.031Z,15.03
2022-12-17T11:36:06.462Z,13.50
2022-12-17T11:38:57.218Z,14.73
2022-12-17T11:41:58.602Z,13.53
2022-12-17T11:45:00.505Z,13.23
2022-12-17T11:47:59.076Z,12.53
2022-12-17T11:50:52.229Z,13.43
2022-12-17T11:53:56.861Z,13.67
2022-12-17T11:56:46.165Z,12.20
2022-12-17T11:59:50.928Z,13.27
2022-12-17T12:02:56.887Z,13.23
2022-12-17T12:05:59.358Z,13.27
2022-12-17T12:08:48.461Z,12.43
2022-12-17T12:11:46.428Z,12.33
2022-12-17T12:14:47.673Z,12.50
2022-12-17T12:18:00.261Z,12.47
2022-12-17T12:21:02.688Z,11.83
2022-12-17T12:24:01.108Z,12.13
2022-12-17T12:26:52.150Z,11.97
2022-12-17T12:29:49.495Z,12.03
2022-12-17T12:32:51.888Z,12.13
2022-12-17T12:35:42.488Z,10.43
2022-12-17T12:38:40.502Z,11.17
2022-12-17T12:41:39.483Z,9.97
2022-12-17T12:44:34.936Z,10.90
2022-12-17T12:47:28.320Z,10.80
2022-12-17T12:50:20.763Z,11.03
2022-12-17T12:53:06.638Z,9.90
2022-12-17T12:55:57.636Z,12.43
2022-12-17T12:58:45.814Z,10.43
2022-12-17T13:01:32.022Z,10.40
2022-12-17T13:04:21.044Z,11.93
2022-12-17T13:06:50.913Z,12.60
2022-12-17T13:09:38.736Z,11.07
2022-12-17T13:12:23.760Z,12.53
2022-12-17T13:14:56.500Z,11.23
2022-12-17T13:17:33.661Z,11.40
2022-12-17T13:20:20.504Z,11.97
2022-12-17T13:22:53.975Z,11.83
2022-12-17T13:25:24.355Z,11.37
2022-12-17T13:27:52.730Z,12.37
2022-12-17T13:30:24.264Z,12.00
2022-12-17T13:33:02.491Z,10.13
2022-12-17T13:35:42.928Z,10.60
2022-12-17T13:38:21.693Z,10.67
2022-12-17T13:41:09.776Z,11.50
2022-12-17T13:43:45.226Z,10.97
2022-12-17T13:46:21.962Z,11.60
2022-12-17T13:48:54.448Z,10.10
2022-12-17T13:51:25.491Z,10.40
2022-12-17T13:53:55.046Z,9.67
2022-12-17T13:56:25.482Z,8.60
2022-12-17T13:58:55.770Z,9.27
2022-12-17T14:01:26.320Z,6.70
2022-12-17T14:04:06.227Z,6.63
2022-12-17T14:06:39.413Z,6.30
2022-12-17T14:09:08.013Z,6.77
2022-12-17T14:11:56.286Z,7.47
2022-12-17T14:14:30.148Z,7.83
2022-12-17T14:16:58.412Z,6.87
2022-12-17T14:19:27.819Z,6.83
2022-12-17T14:21:57.711Z,6.30
2022-12-17T14:24:29.514Z,7.57
2022-12-17T14:26:59.853Z,6.63
2022-12-17T14:29:30.171Z,6.43
2022-12-17T14:32:00.499Z,8.10
2022-12-17T14:34:30.096Z,7.87
2022-12-17T14:37:01.238Z,7.67
2022-12-17T14:39:31.990Z,7.90
2022-12-17T14:42:25.691Z,8.10
2022-12-17T14:44:55.735Z,8.77
2022-12-17T14:47:26.147Z,9.10
2022-12-17T14:50:02.142Z,10.60
2022-12-17T14:52:41.248Z,9.77
2022-12-17T14:55:55.504Z,9.57
2022-12-17T14:58:25.756Z,11.10
2022-12-17T15:00:57.089Z,11.03
2022-12-17T15:03:28.408Z,10.80
2022-12-17T15:06:00.046Z,10.07
2022-12-17T15:08:32.078Z,11.73
2022-12-17T15:11:00.199Z,14.13
2022-12-17T15:13:28.617Z,14.60
2022-12-17T15:15:57.495Z,12.73
2022-12-17T15:18:25.825Z,14.17
2022-12-17T15:20:54.355Z,14.47
2022-12-17T15:23:24.385Z,15.17
2022-12-17T15:25:55.216Z,16.37
2022-12-17T15:28:24.330Z,16.33
2022-12-17T15:30:52.610Z,14.20
2022-12-17T15:33:20.877Z,15.37
2022-12-17T15:35:49.017Z,15.83
2022-12-17T15:38:17.259Z,16.20
2022-12-17T15:40:45.617Z,16.90
2022-12-17T15:43:16.263Z,17.80
2022-12-17T15:45:46.665Z,17.87
2022-12-17T15:48:17.234Z,15.97
2022-12-17T15:50:45.663Z,17.07
2022-12-17T15:53:14.319Z,18.17
2022-12-17T15:55:43.164Z,17.17
2022-12-17T15:58:12.310Z,18.53
2022-12-17T16:00:42.648Z,17.30
2022-12-17T16:03:11.600Z,19.33
2022-12-17T16:05:40.405Z,17.93
2022-12-17T16:08:09.036Z,18.97
2022-12-17T16:10:38.392Z,18.33
2022-12-17T16:13:07.102Z,21.10
2022-12-17T16:15:35.856Z,21.00
2022-12-17T16:18:05.841Z,18.27
2022-12-17T16:20:34.433Z,19.13
2022-12-17T16:23:03.628Z,17.77
2022-12-17T16:25:32.597Z,17.63
2022-12-17T16:28:00.880Z,19.90
2022-12-17T16:30:29.152Z,19.73
2022-12-17T16:32:59.720Z,19.63
2022-12-17T16:35:31.029Z,20.40
2022-12-17T16:37:59.371Z,21.43
2022-12-17T16:40:29.857Z,20.00
2022-12-17T16:43:01.027Z,19.40
2022-12-17T16:45:29.854Z,19.07
2022-12-17T16:47:59.139Z,18.83
2022-12-17T16:50:31.445Z,18.37
2022-12-17T16:53:00.946Z,17.73
2022-12-17T16:55:30.053Z,18.67
2022-12-17T16:57:58.619Z,18.90
2022-12-17T17:00:27.283Z,18.10
2022-12-17T17:02:55.773Z,17.83
2022-12-17T17:05:24.165Z,17.40
2022-12-17T17:07:53.967Z,17.83
2022-12-17T17:10:22.207Z,17.83
2022-12-17T17:12:52.603Z,17.17
2022-12-17T17:15:20.895Z,16.93
2022-12-17T17:17:54.920Z,16.97
2022-12-17T17:20:24.343Z,20.17
2022-12-17T17:22:53.959Z,22.60
2022-12-17T17:25:23.006Z,20.17
2022-12-17T17:27:51.492Z,20.73
2022-12-17T17:30:20.121Z,20.70
2022-12-17T17:32:48.669Z,18.33
2022-12-17T17:35:17.110Z,19.13
2022-12-17T17:37:45.224Z,19.93
2022-12-17T17:40:15.874Z,20.47
2022-12-17T17:42:50.106Z,21.13
2022-12-17T17:45:20.356Z,20.43
2022-12-17T17:47:48.692Z,20.10
2022-12-17T17:50:17.492Z,22.30
2022-12-17T17:52:46.009Z,19.30
2022-12-17T17:55:15.834Z,20.37
2022-12-17T17:57:44.083Z,21.03
2022-12-17T18:00:13.685Z,19.77
2022-12-17T18:02:42.028Z,20.77
2022-12-17T18:05:11.146Z,20.60
2022-12-17T18:07:39.462Z,19.43
2022-12-17T18:10:09.127Z,19.40
2022-12-17T18:12:56.456Z,19.83
2022-12-17T18:15:24.780Z,17.90
2022-12-17T18:17:53.820Z,18.07
2022-12-17T18:20:23.031Z,18.90
2022-12-17T18:22:51.600Z,18.73
2022-12-17T18:25:20.006Z,23.23
2022-12-17T18:27:49.929Z,20.13
2022-12-17T18:30:18.208Z,21.77
2022-12-17T18:32:46.613Z,20.90
2022-12-17T18:35:16.874Z,21.03
2022-12-17T18:37:45.128Z,21.23
2022-12-17T18:40:14.574Z,21.13
2022-12-17T18:43:00.691Z,19.53
2022-12-17T18:45:30.902Z,20.00
2022-12-17T18:47:59.624Z,19.23
2022-12-17T18:50:28.013Z,18.27
2022-12-17T18:52:56.453Z,20.03
2022-12-17T18:55:25.070Z,19.87
2022-12-17T18:57:53.673Z,21.73
2022-12-17T19:00:22.457Z,20.13
2022-12-17T19:02:52.442Z,19.13
2022-12-17T19:05:20.786Z,18.87
2022-12-17T19:07:51.459Z,18.50
2022-12-17T19:10:21.998Z,18.87
2022-12-17T19:12:50.702Z,18.47
2022-12-17T19:15:19.535Z,18.07
2022-12-17T19:17:51.464Z,18.30
2022-12-17T19:20:21.733Z,16.80
2022-12-17T19:22:50.576Z,16.67
2022-12-17T19:25:20.696Z,17.50
2022-12-17T19:27:49.159Z,16.53
2022-12-17T19:30:17.675Z,17.57
2022-12-17T19:32:46.692Z,17.37
2022-12-17T19:35:16.011Z,17.90
2022-12-17T19:37:45.551Z,19.33
2022-12-17T19:40:14.738Z,22.73
2022-12-17T19:42:43.280Z,20.60
2022-12-17T19:45:12.947Z,27.47
2022-12-17T19:47:41.956Z,20.00
2022-12-17T19:50:11.605Z,23.87
2022-12-17T19:52:40.698Z,17.93
2022-12-17T19:55:11.477Z,17.03
2022-12-17T19:57:41.317Z,17.80
2022-12-17T20:00:11.766Z,19.43
2022-12-17T20:02:44.598Z,20.30
2022-12-17T20:05:13.275Z,29.20
2022-12-17T20:07:41.892Z,21.90
2022-12-17T20:10:11.618Z,22.10
2022-12-17T20:12:40.283Z,24.07
2022-12-17T20:15:09.969Z,19.67
2022-12-17T20:17:39.293Z,18.00
2022-12-17T20:20:08.722Z,16.07
2022-12-17T20:22:38.182Z,15.57
2022-12-17T20:25:11.888Z,16.60
2022-12-17T20:27:41.832Z,15.77
2022-12-17T20:30:11.254Z,23.53
2022-12-17T20:32:39.590Z,19.23
2022-12-17T20:35:09.398Z,18.97
2022-12-17T20:37:38.032Z,17.23
2022-12-17T20:40:08.677Z,19.83
2022-12-17T20:42:37.023Z,24.10
2022-12-17T20:45:07.937Z,19.60
2022-12-17T20:47:36.891Z,24.73
2022-12-17T20:50:06.570Z,25.20
2022-12-17T20:52:35.187Z,17.87
2022-12-17T20:55:03.913Z,19.13
2022-12-17T20:57:32.450Z,17.67
2022-12-17T21:00:00.966Z,18.23
2022-12-17T21:02:31.106Z,15.27
2022-12-17T21:04:59.437Z,18.47
2022-12-17T21:07:27.911Z,16.40
2022-12-17T21:09:56.793Z,15.93
2022-12-17T21:12:49.314Z,16.93
2022-12-17T21:15:17.735Z,17.37
2022-12-17T21:17:47.505Z,16.33
2022-12-17T21:20:16.730Z,15.37
2022-12-17T21:22:45.789Z,16.50
2022-12-17T21:25:13.855Z,16.40
2022-12-17T21:27:42.302Z,16.53
2022-12-17T21:30:13.369Z,16.17
2022-12-17T21:32:41.907Z,16.53
2022-12-17T21:35:12.393Z,16.47
2022-12-17T21:37:40.471Z,15.40
2022-12-17T21:40:10.348Z,15.77
2022-12-17T21:42:55.643Z,15.50
2022-12-17T21:45:23.826Z,14.87
2022-12-17T21:47:52.096Z,14.60
2022-12-17T21:50:21.571Z,15.67
2022-12-17T21:52:49.756Z,14.57
2022-12-17T21:55:17.919Z,14.57
2022-12-17T21:57:46.095Z,15.37
2022-12-17T22:00:15.294Z,15.13
2022-12-17T22:02:43.633Z,15.17
2022-12-17T22:05:17.576Z,14.03
2022-12-17T22:07:47.999Z,15.10
2022-12-17T22:10:33.451Z,14.73
2022-12-17T22:13:21.577Z,15.37
2022-12-17T22:15:49.679Z,14.63
2022-12-17T22:18:17.894Z,16.23
2022-12-17T22:20:46.144Z,15.47
2022-12-17T22:23:22.919Z,15.03
2022-12-17T22:25:51.457Z,17.27
2022-12-17T22:28:19.937Z,15.87
2022-12-17T22:31:05.572Z,15.17
2022-12-17T22:34:00.022Z,14.43
2022-12-17T22:36:53.203Z,14.67
2022-12-17T22:44:04.770Z,15.03
2022-12-17T22:44:49.496Z,14.53
2022-12-17T22:45:11.672Z,15.50
2022-12-17T22:47:40.469Z,14.20
2022-12-17T22:50:10.127Z,13.70
2022-12-17T22:52:39.015Z,15.13
2022-12-17T22:55:09.734Z,14.00
2022-12-17T22:57:38.862Z,14.80
2022-12-17T23:00:12.515Z,17.10
2022-12-17T23:02:40.845Z,17.93
2022-12-17T23:05:09.678Z,15.90
2022-12-17T23:07:38.312Z,15.30
2022-12-17T23:10:08.709Z,15.30
2022-12-17T23:12:51.624Z,13.63
2022-12-17T23:15:21.298Z,16.07
2022-12-17T23:17:49.766Z,15.20
2022-12-17T23:20:18.005Z,15.33
2022-12-17T23:22:46.112Z,14.70
2022-12-17T23:25:16.156Z,15.50
2022-12-17T23:27:44.892Z,14.20
2022-12-17T23:30:15.054Z,16.57
2022-12-17T23:32:43.751Z,16.97
2022-12-17T23:35:13.131Z,16.63
2022-12-17T23:37:41.666Z,16.27
2022-12-17T23:40:11.403Z,17.47
2022-12-17T23:42:41.229Z,15.60
2022-12-17T23:45:11.996Z,18.23
2022-12-17T23:47:42.164Z,15.70
2022-12-17T23:50:12.300Z,16.37
2022-12-17T23:52:40.570Z,15.40
2022-12-17T23:55:09.321Z,16.87
2022-12-17T23:57:37.442Z,15.27
